Time;durP1;ratioP1;P1;durP2;ratioP2;P2;SDS_P1;SDS_P2;PMS_P1;PMS_P2;Temp;Humidity;BMP_temperature;BMP_pressure;BME280_temperature;BME280_humidity;BME280_pressure;Samples;Min_cycle;Max_cycle;Signal;HPM_P1;HPM_P2
2022/07/22 00:02:23;;;;;;;;;;;22.40;99.90;;;;;;5059848;28;20115;-64
2022/07/22 00:04:49;;;;;;;8.27;6.63;;;22.30;99.90;;;;;;5059178;28;20380;-65
2022/07/22 00:07:15;;;;;;;10.10;5.80;;;22.20;99.90;;;;;;5059077;28;20385;-65
2022/07/22 00:09:41;;;;;;;9.43;5.53;;;22.20;99.90;;;;;;5057882;28;20478;-64
2022/07/22 00:12:07;;;;;;;9.63;6.68;;;22.20;99.90;;;;;;5059614;28;20029;-64
2022/07/22 00:14:32;;;;;;;10.35;6.72;;;22.10;99.90;;;;;;5059634;28;20032;-64
2022/07/22 00:16:58;;;;;;;7.93;6.65;;;22.10;99.90;;;;;;5058285;28;20029;-64
2022/07/22 00:19:24;;;;;;;9.38;6.50;;;22.00;99.90;;;;;;5058192;28;20481;-66
2022/07/22 00:21:51;;;;;;;11.32;6.70;;;21.90;99.90;;;;;;5055682;28;20389;-65
2022/07/22 00:24:16;;;;;;;8.75;7.15;;;21.80;99.90;;;;;;5056253;28;20033;-62
2022/07/22 00:26:42;;;;;;;11.68;7.75;;;21.70;99.90;;;;;;5056463;28;20028;-64
2022/07/22 00:29:07;;;;;;;8.43;6.45;;;21.60;99.90;;;;;;5056072;28;20186;-63
2022/07/22 00:31:33;;;;;;;9.35;6.40;;;21.60;99.90;;;;;;5055876;28;20056;-63
2022/07/22 00:34:01;;;;;;;7.97;6.45;;;21.50;99.90;;;;;;5055710;28;20112;-64
2022/07/22 00:36:27;;;;;;;8.18;6.43;;;21.40;99.90;;;;;;5055686;28;20047;-64
2022/07/22 00:38:52;;;;;;;;;;;21.50;99.90;;;;;;5055080;28;20025;-64
2022/07/22 00:41:18;;;;;;;11.60;7.10;;;21.40;99.90;;;;;;5055650;28;19974;-64
2022/07/22 00:44:07;;;;;;;10.88;7.80;;;21.30;99.90;;;;;;5054201;28;20021;-64
2022/07/22 00:46:34;;;;;;;8.20;7.38;;;21.30;99.90;;;;;;5055689;28;20021;-64
2022/07/22 00:48:59;;;;;;;11.40;7.28;;;21.20;99.90;;;;;;5057329;28;20053;-65
2022/07/22 00:51:27;;;;;;;12.77;7.90;;;21.10;99.90;;;;;;5056931;28;20020;-64
2022/07/22 00:53:54;;;;;;;11.00;7.88;;;20.90;99.90;;;;;;5056752;28;20029;-64
2022/07/22 00:56:20;;;;;;;9.82;7.68;;;20.90;99.90;;;;;;5055538;28;20025;-64
2022/07/22 00:58:48;;;;;;;10.65;7.80;;;20.80;99.90;;;;;;5055420;28;20033;-64
2022/07/22 01:01:15;;;;;;;12.75;7.72;;;20.80;99.90;;;;;;5056005;28;20087;-64
2022/07/22 01:03:40;;;;;;;9.85;7.43;;;20.70;99.90;;;;;;5055199;28;20029;-64
2022/07/22 01:06:06;;;;;;;12.93;8.05;;;20.70;99.90;;;;;;5055037;28;20048;-64
2022/07/22 01:08:33;;;;;;;9.93;7.45;;;20.70;99.90;;;;;;5055308;28;20485;-64
2022/07/22 01:11:10;;;;;;;10.77;7.50;;;20.70;99.90;;;;;;5055401;28;20021;-64
2022/07/22 01:13:36;;;;;;;10.10;7.50;;;20.70;99.90;;;;;;5055052;28;20018;-64
2022/07/22 01:16:03;;;;;;;11.07;7.63;;;20.70;99.90;;;;;;5054759;28;20094;-64
2022/07/22 01:18:29;;;;;;;11.45;8.30;;;20.70;99.90;;;;;;5055057;28;20028;-64
2022/07/22 01:20:54;;;;;;;11.32;8.27;;;20.60;99.90;;;;;;5055042;28;20025;-64
2022/07/22 01:23:20;;;;;;;13.55;7.68;;;20.60;99.90;;;;;;5053405;28;20079;-63
2022/07/22 01:25:46;;;;;;;11.85;8.02;;;20.70;99.90;;;;;;5054692;28;20112;-63
2022/07/22 01:28:11;;;;;;;9.35;7.28;;;20.60;99.90;;;;;;5055001;28;20040;-63
2022/07/22 01:30:37;;;;;;;13.13;8.07;;;20.60;99.90;;;;;;5054656;28;20027;-63
2022/07/22 01:33:02;;;;;;;12.27;8.70;;;20.60;99.90;;;;;;5055009;28;20029;-64
2022/07/22 01:35:28;;;;;;;12.52;7.82;;;20.70;99.90;;;;;;5055453;28;20029;-64
2022/07/22 01:37:53;;;;;;;9.98;7.70;;;20.70;99.90;;;;;;5056599;28;20041;-63
2022/07/22 01:40:19;;;;;;;9.95;7.65;;;20.70;99.90;;;;;;5055559;28;20130;-63
2022/07/22 01:42:45;;;;;;;11.00;7.43;;;20.70;99.90;;;;;;5055476;28;20466;-64
2022/07/22 01:45:10;;;;;;;10.80;8.15;;;20.70;99.90;;;;;;5055294;28;20028;-64
2022/07/22 01:47:36;;;;;;;11.30;8.15;;;20.70;99.90;;;;;;5055712;28;20029;-64
2022/07/22 01:50:02;;;;;;;11.10;8.30;;;20.60;99.90;;;;;;5054440;28;20025;-64
2022/07/22 01:52:28;;;;;;;12.75;8.23;;;20.60;99.90;;;;;;5054628;28;20036;-64
2022/07/22 01:54:53;;;;;;;10.57;8.23;;;20.50;99.90;;;;;;5054321;28;20025;-65
2022/07/22 01:57:19;;;;;;;13.35;7.97;;;20.50;99.90;;;;;;5054464;28;20481;-66
2022/07/22 01:59:44;;;;;;;10.63;7.75;;;20.50;99.90;;;;;;5052782;28;20074;-65
2022/07/22 02:02:10;;;;;;;9.82;7.43;;;20.50;99.90;;;;;;5054600;28;20032;-66
2022/07/22 02:04:36;;;;;;;10.82;8.10;;;20.50;99.90;;;;;;5054337;28;20039;-64
2022/07/22 02:07:02;;;;;;;10.95;8.52;;;20.40;99.90;;;;;;5054108;28;20536;-64
2022/07/22 02:09:27;;;;;;;12.45;8.43;;;20.30;99.90;;;;;;5054745;28;20025;-65
2022/07/22 02:11:53;;;;;;;11.13;8.40;;;20.20;99.90;;;;;;5053976;28;20021;-64
2022/07/22 02:14:19;;;;;;;11.82;8.43;;;20.10;99.90;;;;;;5052590;28;20025;-65
2022/07/22 02:16:44;;;;;;;11.15;9.10;;;20.00;99.90;;;;;;5053807;28;20133;-65
2022/07/22 02:19:10;;;;;;;11.55;8.27;;;19.90;99.90;;;;;;5053839;28;20028;-65
2022/07/22 02:21:36;;;;;;;11.68;8.35;;;19.90;99.90;;;;;;5052545;28;20082;-66
2022/07/22 02:24:02;;;;;;;11.93;7.88;;;19.80;99.90;;;;;;5053746;28;20035;-66
2022/07/22 02:26:27;;;;;;;9.55;7.80;;;19.80;99.90;;;;;;5054077;28;20033;-66
2022/07/22 02:28:53;;;;;;;11.18;7.38;;;19.70;99.90;;;;;;5055130;28;20023;-66
2022/07/22 02:31:20;;;;;;;12.90;8.60;;;19.70;99.90;;;;;;5053885;28;20117;-65
2022/07/22 02:33:46;;;;;;;11.13;7.70;;;19.70;99.90;;;;;;5055354;28;20544;-66
2022/07/22 02:36:11;;;;;;;11.88;7.78;;;19.70;99.90;;;;;;5054298;28;20045;-65
2022/07/22 02:38:38;;;;;;;12.88;8.27;;;19.70;99.90;;;;;;5054331;28;20029;-66
2022/07/22 02:41:04;;;;;;;8.70;7.80;;;19.60;99.90;;;;;;5054334;28;20060;-66
2022/07/22 02:43:29;;;;;;;9.77;7.50;;;19.60;99.90;;;;;;5053713;28;20044;-65
2022/07/22 02:45:55;;;;;;;11.93;8.65;;;19.50;99.90;;;;;;5054491;28;20358;-65
2022/07/22 02:48:21;;;;;;;9.15;7.90;;;19.50;99.90;;;;;;5053821;28;20127;-65
2022/07/22 02:50:47;;;;;;;;;;;19.50;99.90;;;;;;5053902;28;20021;-66
2022/07/22 02:53:12;;;;;;;10.70;7.82;;;19.50;99.90;;;;;;5053766;28;19916;-65
2022/07/22 02:55:38;;;;;;;16.15;9.00;;;19.50;99.90;;;;;;5054250;28;20037;-64
2022/07/22 02:58:05;;;;;;;9.30;7.43;;;19.50;99.90;;;;;;5053204;28;20025;-65
2022/07/22 03:00:30;;;;;;;12.35;8.05;;;19.50;99.90;;;;;;5053434;28;20039;-66
2022/07/22 03:02:56;;;;;;;13.02;8.15;;;19.50;99.90;;;;;;5053505;28;20025;-65
2022/07/22 03:05:22;;;;;;;11.45;8.05;;;19.50;99.90;;;;;;5054215;28;20124;-65
2022/07/22 03:07:48;;;;;;;10.63;8.18;;;19.50;99.90;;;;;;5053219;28;20029;-66
2022/07/22 03:10:14;;;;;;;11.57;8.48;;;19.50;99.90;;;;;;5051776;28;20053;-65
2022/07/22 03:12:39;;;;;;;11.35;8.25;;;19.50;99.90;;;;;;5053367;28;20092;-64
2022/07/22 03:15:06;;;;;;;10.35;7.80;;;19.40;99.90;;;;;;5053164;28;20492;-63
2022/07/22 03:17:35;;;;;;;10.55;7.70;;;19.40;99.90;;;;;;5053231;28;20108;-64
2022/07/22 03:20:09;;;;;;;10.43;8.20;;;19.30;99.90;;;;;;5053313;28;20504;-63
2022/07/22 03:22:35;;;;;;;10.55;8.18;;;19.30;99.90;;;;;;5053442;28;20052;-64
2022/07/22 03:25:01;;;;;;;10.15;8.23;;;19.30;99.90;;;;;;5052797;28;20064;-63
2022/07/22 03:27:26;;;;;;;11.25;7.97;;;19.30;99.90;;;;;;5054647;28;20060;-64
2022/07/22 03:29:52;;;;;;;10.93;8.50;;;19.30;99.90;;;;;;5054324;28;20074;-63
2022/07/22 03:32:18;;;;;;;13.20;8.73;;;19.30;99.90;;;;;;5055005;28;20044;-63
2022/07/22 03:34:44;;;;;;;12.13;8.15;;;19.30;99.90;;;;;;5054398;28;20080;-63
2022/07/22 03:37:10;;;;;;;13.70;8.52;;;19.10;99.90;;;;;;5054433;28;20040;-63
2022/07/22 03:39:36;;;;;;;11.98;8.77;;;19.10;99.90;;;;;;5053570;28;20021;-63
2022/07/22 03:42:01;;;;;;;10.98;8.70;;;19.10;99.90;;;;;;5054886;28;20029;-63
2022/07/22 03:44:27;;;;;;;10.15;8.05;;;19.10;99.90;;;;;;5054600;28;20037;-62
2022/07/22 03:46:53;;;;;;;10.93;8.35;;;19.00;99.90;;;;;;5054649;28;20025;-62
2022/07/22 03:49:19;;;;;;;;;;;19.10;99.90;;;;;;5053847;28;20067;-62
2022/07/22 03:51:44;;;;;;;12.77;9.43;;;19.00;99.90;;;;;;5053599;28;19905;-62
2022/07/22 03:54:10;;;;;;;12.50;8.43;;;19.00;99.90;;;;;;5054280;28;20021;-64
2022/07/22 03:56:35;;;;;;;10.80;8.00;;;19.00;99.90;;;;;;5057565;28;20088;-62
2022/07/22 03:59:01;;;;;;;12.23;7.95;;;19.00;99.90;;;;;;5057668;28;20078;-62
2022/07/22 04:01:26;;;;;;;10.95;8.55;;;19.00;99.90;;;;;;5057746;28;20521;-63
2022/07/22 04:03:52;;;;;;;14.52;9.07;;;19.00;99.90;;;;;;5057889;28;20087;-63
2022/07/22 04:06:18;;;;;;;11.43;8.88;;;19.00;99.90;;;;;;5058488;28;20486;-62
2022/07/22 04:08:44;;;;;;;11.70;9.02;;;19.00;99.90;;;;;;5058149;28;20174;-62
2022/07/22 04:11:09;;;;;;;9.32;8.18;;;19.00;99.90;;;;;;5058497;28;20493;-63
2022/07/22 04:13:35;;;;;;;12.00;9.20;;;19.00;99.90;;;;;;5058330;28;20029;-65
2022/07/22 04:16:01;;;;;;;11.10;9.05;;;19.00;99.90;;;;;;5058849;28;20121;-67
2022/07/22 04:18:26;;;;;;;13.15;9.00;;;19.00;99.90;;;;;;5058646;28;20021;-65
2022/07/22 04:20:52;;;;;;;10.23;7.97;;;19.00;99.90;;;;;;5058038;28;20052;-66
2022/07/22 04:23:17;;;;;;;11.35;8.57;;;18.90;99.90;;;;;;5058357;28;20025;-66
2022/07/22 04:25:44;;;;;;;9.93;8.00;;;18.90;99.90;;;;;;5058000;28;20033;-66
2022/07/22 04:28:09;;;;;;;;;;;19.00;99.90;;;;;;5058434;28;20020;-67
2022/07/22 04:30:35;;;;;;;14.57;9.02;;;19.00;99.90;;;;;;5056608;28;19905;-65
2022/07/22 04:33:00;;;;;;;10.38;8.00;;;19.00;99.90;;;;;;5058086;28;20033;-65
2022/07/22 04:35:26;;;;;;;11.10;8.70;;;19.00;99.90;;;;;;5058711;28;20041;-65
2022/07/22 04:37:51;;;;;;;11.13;8.38;;;18.90;99.90;;;;;;5058807;28;20493;-65
2022/07/22 04:40:17;;;;;;;13.77;9.38;;;18.90;99.90;;;;;;5058552;28;20499;-65
2022/07/22 04:42:43;;;;;;;14.45;10.38;;;18.90;99.90;;;;;;5057870;28;20032;-66
2022/07/22 04:45:09;;;;;;;10.13;8.68;;;18.90;99.90;;;;;;5055044;28;20064;-65
2022/07/22 04:47:34;;;;;;;13.52;9.27;;;18.90;99.90;;;;;;5057115;28;20113;-64
2022/07/22 04:50:00;;;;;;;11.73;8.50;;;18.90;99.90;;;;;;5055897;28;20511;-63
2022/07/22 04:52:26;;;;;;;13.57;9.15;;;19.00;99.90;;;;;;5055455;28;20021;-62
2022/07/22 04:54:51;;;;;;;11.40;9.18;;;19.00;99.90;;;;;;5055676;28;20037;-63
2022/07/22 04:57:17;;;;;;;12.40;9.60;;;19.00;99.90;;;;;;5054342;28;20025;-63
2022/07/22 04:59:43;;;;;;;15.85;8.77;;;19.00;99.90;;;;;;5056772;28;20117;-64
2022/07/22 05:02:08;;;;;;;20.92;10.38;;;19.10;99.90;;;;;;5057116;28;20021;-64
2022/07/22 05:04:34;;;;;;;10.13;8.10;;;19.20;99.90;;;;;;5056184;28;20029;-62
2022/07/22 05:07:00;;;;;;;13.77;8.07;;;19.10;99.90;;;;;;5056608;28;20382;-63
2022/07/22 05:09:26;;;;;;;12.80;9.75;;;19.00;99.90;;;;;;5056078;28;20029;-64
2022/07/22 05:11:51;;;;;;;11.00;8.65;;;19.00;99.90;;;;;;5055985;28;20017;-64
2022/07/22 05:14:17;;;;;;;10.52;8.68;;;18.90;99.90;;;;;;5055617;28;20029;-64
2022/07/22 05:16:42;;;;;;;12.18;8.60;;;19.10;99.90;;;;;;5054951;28;20040;-64
2022/07/22 05:19:08;;;;;;;11.13;8.25;;;19.10;99.90;;;;;;5055653;28;20033;-64
2022/07/22 05:21:33;;;;;;;10.55;8.30;;;19.10;99.90;;;;;;5057014;28;20020;-65
2022/07/22 05:23:59;;;;;;;14.00;8.02;;;19.10;99.90;;;;;;5056204;28;20474;-65
2022/07/22 05:26:28;;;;;;;10.05;8.07;;;19.10;99.90;;;;;;5055113;28;20070;-64
2022/07/22 05:28:53;;;;;;;13.13;9.23;;;19.20;99.90;;;;;;5056537;28;20017;-62
2022/07/22 05:31:19;;;;;;;9.57;7.55;;;19.30;99.90;;;;;;5056296;28;20492;-64
2022/07/22 05:33:45;;;;;;;15.23;9.10;;;19.40;99.90;;;;;;5054765;28;20159;-63
2022/07/22 05:36:10;;;;;;;11.10;7.15;;;19.40;99.90;;;;;;5054683;28;20048;-62
2022/07/22 05:38:36;;;;;;;10.80;7.53;;;19.50;99.90;;;;;;5054733;28;20037;-62
2022/07/22 05:41:02;;;;;;;10.00;7.80;;;19.60;99.90;;;;;;5052786;28;20470;-64
2022/07/22 05:43:28;;;;;;;11.05;8.15;;;19.60;99.90;;;;;;5052800;28;20075;-61
2022/07/22 05:45:54;;;;;;;12.88;7.65;;;19.60;99.90;;;;;;5052820;28;20135;-63
2022/07/22 05:48:19;;;;;;;9.73;7.75;;;19.60;99.90;;;;;;5052628;28;20048;-63
2022/07/22 05:50:45;;;;;;;9.85;7.68;;;19.60;99.90;;;;;;5052936;28;20021;-64
2022/07/22 05:53:10;;;;;;;10.05;7.30;;;19.60;99.90;;;;;;5053092;28;20108;-64
2022/07/22 05:55:36;;;;;;;8.95;7.05;;;19.60;99.90;;;;;;5052090;28;20052;-62
2022/07/22 05:58:02;;;;;;;9.27;7.28;;;19.60;99.90;;;;;;5054612;28;20115;-62
2022/07/22 06:00:27;;;;;;;10.88;7.65;;;19.60;99.90;;;;;;5054079;28;20035;-59
2022/07/22 06:02:53;;;;;;;10.07;6.57;;;19.60;99.90;;;;;;5053918;28;20037;-61
2022/07/22 06:05:19;;;;;;;9.68;7.30;;;19.70;99.90;;;;;;5053999;28;20025;-62
2022/07/22 06:07:45;;;;;;;12.95;6.85;;;19.70;99.90;;;;;;5053823;28;20378;-62
2022/07/22 06:10:11;;;;;;;11.48;6.57;;;19.80;99.90;;;;;;5052519;28;20070;-62
2022/07/22 06:12:36;;;;;;;10.13;7.18;;;19.90;99.90;;;;;;5054064;28;20064;-61
2022/07/22 06:15:03;;;;;;;9.55;6.63;;;20.00;99.90;;;;;;5054513;28;20029;-61
2022/07/22 06:17:28;;;;;;;10.85;7.38;;;20.10;99.90;;;;;;5051841;28;20086;-62
2022/07/22 06:19:54;;;;;;;12.40;7.55;;;20.20;99.90;;;;;;5053750;28;20061;-64
2022/07/22 06:22:19;;;;;;;11.73;7.95;;;20.30;99.90;;;;;;5054763;28;20033;-62
2022/07/22 06:24:45;;;;;;;9.88;7.43;;;20.20;99.90;;;;;;5053859;28;20029;-62
2022/07/22 06:27:11;;;;;;;10.18;8.13;;;20.30;99.90;;;;;;5053669;28;20032;-62
2022/07/22 06:29:36;;;;;;;;;;;20.30;99.90;;;;;;5054291;28;20135;-63
2022/07/22 06:32:02;;;;;;;12.40;7.53;;;20.30;99.90;;;;;;5053710;28;19904;-61
2022/07/22 06:34:29;;;;;;;11.50;7.70;;;20.40;99.90;;;;;;5054332;28;20449;-63
2022/07/22 06:36:55;;;;;;;10.02;7.15;;;20.40;99.90;;;;;;5053490;28;20029;-62
2022/07/22 06:39:21;;;;;;;11.45;7.20;;;20.40;99.90;;;;;;5054096;28;20025;-60
2022/07/22 06:41:47;;;;;;;10.70;7.00;;;20.60;99.90;;;;;;5053821;28;20090;-62
2022/07/22 06:44:12;;;;;;;12.80;7.28;;;20.60;99.90;;;;;;5053487;28;20037;-62
2022/07/22 06:46:38;;;;;;;11.07;6.80;;;20.70;99.90;;;;;;5053493;28;20029;-62
2022/07/22 06:49:03;;;;;;;11.02;6.60;;;20.80;99.90;;;;;;5053709;28;20031;-63
2022/07/22 06:51:29;;;;;;;8.75;6.40;;;20.80;99.90;;;;;;5053504;28;20025;-66
2022/07/22 06:53:55;;;;;;;11.00;7.28;;;20.90;99.90;;;;;;5053360;28;20031;-61
2022/07/22 06:56:20;;;;;;;11.27;8.10;;;20.90;99.90;;;;;;5053098;28;20025;-63
2022/07/22 06:58:46;;;;;;;10.75;7.40;;;21.00;99.90;;;;;;5053200;28;20391;-62
2022/07/22 07:01:12;;;;;;;9.65;7.45;;;21.10;99.90;;;;;;5053304;28;20037;-63
2022/07/22 07:03:37;;;;;;;10.90;7.05;;;21.20;99.90;;;;;;5053371;28;20036;-62
2022/07/22 07:06:04;;;;;;;8.63;6.90;;;21.30;99.90;;;;;;5053611;28;20043;-62
2022/07/22 07:08:30;;;;;;;11.50;7.35;;;21.40;99.90;;;;;;5053743;28;20013;-63
2022/07/22 07:10:55;;;;;;;10.80;8.20;;;21.40;99.90;;;;;;5053111;28;20024;-62
2022/07/22 07:13:21;;;;;;;11.05;7.60;;;21.60;99.90;;;;;;5053338;28;20036;-62
2022/07/22 07:15:46;;;;;;;11.82;7.43;;;21.70;99.90;;;;;;5053430;28;20025;-63
2022/07/22 07:18:12;;;;;;;9.85;7.28;;;21.70;99.90;;;;;;5053417;28;20399;-63
2022/07/22 07:20:37;;;;;;;11.48;7.75;;;21.70;99.90;;;;;;5053708;28;20029;-63
2022/07/22 07:23:03;;;;;;;9.63;6.55;;;21.90;99.90;;;;;;5053665;28;20025;-62
2022/07/22 07:25:29;;;;;;;9.05;7.28;;;22.00;99.90;;;;;;5053183;28;20021;-62
2022/07/22 07:27:55;;;;;;;8.55;6.10;;;22.10;99.90;;;;;;5052892;28;20108;-62
2022/07/22 07:30:22;;;;;;;11.50;7.13;;;22.20;99.90;;;;;;5055765;28;20024;-63
2022/07/22 07:32:48;;;;;;;10.55;7.85;;;22.30;99.90;;;;;;5057169;28;20136;-63
2022/07/22 07:35:13;;;;;;;10.95;7.15;;;22.30;99.90;;;;;;5056886;28;20029;-62
2022/07/22 07:37:39;;;;;;;10.13;7.40;;;22.40;99.90;;;;;;5057405;28;20091;-67
2022/07/22 07:40:05;;;;;;;8.82;6.80;;;22.60;99.90;;;;;;5055483;28;20027;-67
2022/07/22 07:42:31;;;;;;;9.30;7.13;;;22.60;99.90;;;;;;5057089;28;20025;-67
2022/07/22 07:44:57;;;;;;;11.68;8.00;;;22.60;99.90;;;;;;5056660;28;20355;-66
2022/07/22 07:47:22;;;;;;;10.52;6.85;;;22.60;99.90;;;;;;5056467;28;20108;-67
2022/07/22 07:49:48;;;;;;;8.77;7.00;;;22.80;99.90;;;;;;5056435;28;20033;-67
2022/07/22 07:52:14;;;;;;;;;;;22.80;99.90;;;;;;5056906;28;20025;-67
2022/07/22 07:54:40;;;;;;;9.68;7.00;;;22.90;99.90;;;;;;5056260;28;19913;-66
2022/07/22 07:57:07;;;;;;;11.85;7.75;;;23.00;99.90;;;;;;5054994;28;20116;-67
2022/07/22 07:59:33;;;;;;;9.23;7.13;;;23.10;99.90;;;;;;5056428;28;20047;-66
2022/07/22 08:01:58;;;;;;;10.70;7.43;;;23.30;99.90;;;;;;5056492;28;20021;-66
2022/07/22 08:04:24;;;;;;;;;;;23.50;99.90;;;;;;5056818;28;20037;-66
2022/07/22 08:06:49;;;;;;;11.60;7.22;;;23.60;99.90;;;;;;5054928;28;20065;-66
2022/07/22 08:09:15;;;;;;;;;;;23.70;99.90;;;;;;5056677;28;20036;-65
2022/07/22 08:11:40;;;;;;;9.98;7.20;;;23.80;99.90;;;;;;5056110;28;19909;-69
2022/07/22 08:14:06;;;;;;;;;;;23.90;99.90;;;;;;5055366;28;20025;-65
2022/07/22 08:16:32;;;;;;;9.40;6.40;;;24.00;99.90;;;;;;5055981;28;19992;-66
2022/07/22 08:18:58;;;;;;;;;;;24.80;99.90;;;;;;5056424;28;20024;-66
2022/07/22 08:21:25;;;;;;;9.25;6.68;;;26.30;99.90;;;;;;5055950;28;19911;-65
2022/07/22 08:23:51;;;;;;;9.88;6.78;;;27.60;99.80;;;;;;5054902;28;20120;-66
2022/07/22 08:26:16;;;;;;;8.50;6.80;;;28.50;97.70;;;;;;5056832;28;20052;-67
2022/07/22 08:28:42;;;;;;;8.00;6.50;;;29.10;96.50;;;;;;5056004;28;20055;-66
2022/07/22 08:31:07;;;;;;;9.05;6.22;;;30.70;93.80;;;;;;5056215;28;20029;-66
2022/07/22 08:33:33;;;;;;;9.43;6.43;;;30.90;93.30;;;;;;5056314;28;20068;-68
2022/07/22 08:35:59;;;;;;;8.55;6.00;;;31.60;91.20;;;;;;5055709;28;20037;-66
2022/07/22 08:38:24;;;;;;;7.70;6.90;;;31.20;91.00;;;;;;5056089;28;20045;-67
2022/07/22 08:40:55;;;;;;;9.25;6.40;;;31.50;90.60;;;;;;5054909;28;20021;-67
2022/07/22 08:43:22;;;;;;;7.78;5.75;;;31.50;90.20;;;;;;5056033;28;20021;-67
2022/07/22 08:45:48;;;;;;;6.53;5.85;;;32.00;88.70;;;;;;5054374;28;20059;-67
2022/07/22 08:48:14;;;;;;;9.52;6.15;;;31.90;88.60;;;;;;5054186;28;20017;-67
2022/07/22 08:50:40;;;;;;;6.45;5.85;;;32.10;87.90;;;;;;5055546;28;20025;-67
2022/07/22 08:53:10;;;;;;;7.38;6.15;;;32.80;85.60;;;;;;5055748;28;20398;-66
2022/07/22 08:55:42;;;;;;;6.22;5.10;;;33.00;84.70;;;;;;5054457;28;20025;-66
2022/07/22 08:58:08;;;;;;;12.27;6.07;;;33.80;82.90;;;;;;5055473;28;20112;-66
2022/07/22 09:00:34;;;;;;;6.43;5.35;;;34.00;80.90;;;;;;5055632;28;20080;-66
2022/07/22 09:03:00;;;;;;;6.05;5.18;;;33.80;80.60;;;;;;5054541;28;20090;-67
2022/07/22 09:05:32;;;;;;;6.55;5.00;;;34.70;78.80;;;;;;5055655;28;20025;-68
2022/07/22 09:07:58;;;;;;;6.15;5.13;;;35.00;78.10;;;;;;5054963;28;20393;-67
2022/07/22 09:10:29;;;;;;;7.07;5.38;;;36.40;75.20;;;;;;5054894;28;20028;-66
2022/07/22 09:13:01;;;;;;;7.40;5.07;;;36.00;74.40;;;;;;5055181;28;20017;-66
2022/07/22 09:15:29;;;;;;;5.90;4.97;;;37.10;72.20;;;;;;5055451;28;20021;-67
2022/07/22 09:17:57;;;;;;;6.53;5.28;;;37.70;70.50;;;;;;5055051;28;20025;-68
2022/07/22 09:20:23;;;;;;;9.65;5.18;;;36.40;70.40;;;;;;5055083;28;20025;-66
2022/07/22 09:22:49;;;;;;;7.15;5.55;;;35.00;72.90;;;;;;5055420;28;20033;-66
2022/07/22 09:25:35;;;;;;;7.35;5.03;;;34.90;73.20;;;;;;5053851;28;20150;-66
2022/07/22 09:28:07;;;;;;;;;;;35.50;72.20;;;;;;5055443;28;20029;-67
2022/07/22 09:30:35;;;;;;;6.95;5.18;;;37.20;70.00;;;;;;5056328;28;19974;-67
2022/07/22 09:33:01;;;;;;;6.00;5.35;;;37.90;67.90;;;;;;5054926;28;20132;-67
2022/07/22 09:35:27;;;;;;;35.58;7.18;;;36.80;67.80;;;;;;5054647;28;20078;-67
2022/07/22 09:38:01;;;;;;;6.85;4.35;;;36.60;68.60;;;;;;5053630;28;20504;-67
2022/07/22 09:40:32;;;;;;;7.20;5.03;;;36.60;67.80;;;;;;5054747;28;20024;-66
2022/07/22 09:43:01;;;;;;;6.68;4.80;;;35.80;68.90;;;;;;5054613;28;20029;-67
2022/07/22 09:45:31;;;;;;;5.20;4.70;;;36.00;68.70;;;;;;5054787;28;20021;-67
2022/07/22 09:47:58;;;;;;;6.82;4.95;;;36.40;68.00;;;;;;5054492;28;20031;-67
2022/07/22 09:50:32;;;;;;;6.15;5.25;;;36.30;67.80;;;;;;5054748;28;20057;-66
2022/07/22 09:52:59;;;;;;;8.90;4.72;;;35.70;68.90;;;;;;5054455;28;20204;-66
2022/07/22 09:55:27;;;;;;;6.63;5.10;;;36.20;68.10;;;;;;5054704;28;20428;-66
2022/07/22 09:57:53;;;;;;;7.28;4.82;;;36.30;67.80;;;;;;5054471;28;20474;-67
2022/07/22 10:00:22;;;;;;;6.10;5.07;;;35.40;69.40;;;;;;5054546;28;20469;-67
2022/07/22 10:02:51;;;;;;;5.28;4.80;;;36.20;68.20;;;;;;5054189;28;20115;-67
2022/07/22 10:05:20;;;;;;;5.65;4.63;;;35.70;68.40;;;;;;5054022;28;20036;-67
2022/07/22 10:07:46;;;;;;;5.07;4.38;;;35.80;68.30;;;;;;5054381;28;20013;-67
2022/07/22 10:10:15;;;;;;;6.00;4.95;;;36.60;67.50;;;;;;5055073;28;20025;-67
2022/07/22 10:12:41;;;;;;;8.15;4.82;;;36.90;66.50;;;;;;5054839;28;20017;-66
2022/07/22 10:15:08;;;;;;;8.73;5.18;;;36.50;66.90;;;;;;5054803;28;20029;-67
2022/07/22 10:17:38;;;;;;;5.80;5.05;;;36.40;66.50;;;;;;5054589;28;20491;-67
2022/07/22 10:20:06;;;;;;;6.63;5.10;;;36.20;66.50;;;;;;5057586;28;20040;-68
2022/07/22 10:22:46;;;;;;;5.68;4.60;;;37.00;66.20;;;;;;5056010;28;20052;-67
2022/07/22 10:25:13;;;;;;;6.25;5.00;;;37.40;65.50;;;;;;5059543;28;20035;-67
2022/07/22 10:27:46;;;;;;;5.78;4.47;;;38.30;64.00;;;;;;5052806;28;20119;-67
2022/07/22 10:30:14;;;;;;;7.13;4.28;;;39.20;62.90;;;;;;5054063;28;20027;-67
2022/07/22 10:32:40;;;;;;;6.93;4.97;;;39.20;62.40;;;;;;5054151;28;20470;-67
2022/07/22 10:35:08;;;;;;;7.28;5.18;;;39.90;61.50;;;;;;5053995;28;20041;-67
2022/07/22 10:37:34;;;;;;;5.38;4.88;;;39.90;60.90;;;;;;5052513;28;20470;-67
2022/07/22 10:40:14;;;;;;;6.22;4.65;;;38.40;61.80;;;;;;5053646;28;20029;-66
2022/07/22 10:43:03;;;;;;;6.32;4.80;;;38.40;62.50;;;;;;5053725;28;20078;-68
2022/07/22 10:45:41;;;;;;;6.97;4.80;;;39.60;61.40;;;;;;5053747;28;20397;-67
2022/07/22 10:48:09;;;;;;;9.43;5.30;;;39.80;60.20;;;;;;5054094;28;20028;-68
2022/07/22 10:50:37;;;;;;;6.35;4.88;;;39.90;59.80;;;;;;5053612;28;20032;-68
2022/07/22 10:53:15;;;;;;;5.50;5.00;;;39.00;60.40;;;;;;5052363;28;20031;-68
2022/07/22 10:56:21;;;;;;;10.52;5.03;;;37.60;61.80;;;;;;5053935;28;20071;-67
2022/07/22 10:58:51;;;;;;;5.20;4.35;;;37.60;61.90;;;;;;4992441;28;20041;-66
2022/07/22 11:01:19;;;;;;;6.72;4.53;;;37.20;63.20;;;;;;4992269;28;20030;-68
2022/07/22 11:03:47;;;;;;;6.00;4.70;;;38.20;61.50;;;;;;4991347;28;20057;-67
2022/07/22 11:06:13;;;;;;;6.82;5.20;;;37.20;62.40;;;;;;4992092;28;20101;-67
2022/07/22 11:08:39;;;;;;;8.75;5.30;;;37.30;62.60;;;;;;4992465;28;20113;-67
2022/07/22 11:11:05;;;;;;;7.80;5.10;;;37.80;62.00;;;;;;4976083;28;20137;-67
2022/07/22 11:13:35;;;;;;;7.20;5.18;;;36.40;62.80;;;;;;4992645;28;20479;-66
2022/07/22 11:16:17;;;;;;;5.68;4.90;;;34.90;64.90;;;;;;4992714;28;20071;-67
2022/07/22 11:18:49;;;;;;;5.53;4.97;;;33.40;67.50;;;;;;4992065;28;20030;-66
2022/07/22 11:21:20;;;;;;;5.50;5.00;;;33.00;68.80;;;;;;4992247;28;20042;-67
2022/07/22 11:23:47;;;;;;;7.18;5.00;;;33.00;69.00;;;;;;4992407;28;20030;-67
2022/07/22 11:26:15;;;;;;;7.28;4.95;;;32.60;69.60;;;;;;4992830;28;20023;-68
2022/07/22 11:28:42;;;;;;;6.18;5.60;;;31.80;71.10;;;;;;4993174;28;20030;-67
2022/07/22 11:31:09;;;;;;;6.50;5.35;;;31.10;72.70;;;;;;4992678;28;20487;-67
2022/07/22 11:33:35;;;;;;;6.25;5.53;;;30.90;73.20;;;;;;5006929;28;20502;-67
2022/07/22 11:36:06;;;;;;;8.57;5.40;;;30.80;73.60;;;;;;5052695;28;20090;-66
2022/07/22 11:38:48;;;;;;;7.28;5.55;;;30.40;74.00;;;;;;5052979;28;20028;-67
2022/07/22 11:41:16;;;;;;;9.48;5.60;;;30.30;74.00;;;;;;5054277;28;20497;-66
2022/07/22 11:43:48;;;;;;;8.13;5.57;;;30.10;74.70;;;;;;5059773;28;20025;-67
2022/07/22 11:46:15;;;;;;;7.13;5.95;;;30.20;74.80;;;;;;5057503;28;20037;-67
2022/07/22 11:48:42;;;;;;;8.02;5.43;;;30.20;75.20;;;;;;5052025;28;20068;-66
2022/07/22 11:51:10;;;;;;;6.85;6.03;;;30.20;75.00;;;;;;5055224;28;20358;-68
2022/07/22 11:53:39;;;;;;;8.85;5.35;;;30.10;74.60;;;;;;5053819;28;20021;-67
2022/07/22 11:56:07;;;;;;;6.32;5.03;;;30.10;75.30;;;;;;5053596;28;20064;-67
2022/07/22 11:58:46;;;;;;;5.70;4.93;;;30.30;74.90;;;;;;5052110;28;20032;-67
2022/07/22 12:01:16;;;;;;;7.25;5.75;;;30.40;74.90;;;;;;5053140;28;20079;-67
2022/07/22 12:03:50;;;;;;;7.47;5.53;;;30.40;74.80;;;;;;5052767;28;20031;-67
2022/07/22 12:06:17;;;;;;;8.80;5.55;;;30.50;76.50;;;;;;5052859;28;20033;-67
2022/07/22 12:08:46;;;;;;;7.90;5.53;;;30.70;74.60;;;;;;5052804;28;20017;-66
2022/07/22 12:11:14;;;;;;;7.13;5.22;;;30.70;74.40;;;;;;5052830;28;20059;-66
2022/07/22 12:13:45;;;;;;;9.35;5.45;;;30.70;75.90;;;;;;5051711;28;20397;-66
2022/07/22 12:16:37;;;;;;;8.60;5.38;;;30.60;77.40;;;;;;5053218;28;20032;-66
2022/07/22 12:19:04;;;;;;;8.13;5.65;;;30.60;77.90;;;;;;5053640;28;20048;-65
2022/07/22 12:21:32;;;;;;;7.72;5.53;;;30.60;77.60;;;;;;5056177;28;20051;-66
2022/07/22 12:24:04;;;;;;;8.20;5.18;;;30.70;77.20;;;;;;5055831;28;20129;-66
2022/07/22 12:26:47;;;;;;;6.55;5.60;;;30.80;77.80;;;;;;5055943;28;20025;-64
2022/07/22 12:29:32;;;;;;;8.88;5.72;;;30.80;77.10;;;;;;5054720;28;20025;-66
2022/07/22 12:32:03;;;;;;;7.53;5.20;;;30.70;77.20;;;;;;5056115;28;20025;-67
2022/07/22 12:34:41;;;;;;;7.35;5.50;;;30.80;77.60;;;;;;5056019;28;20032;-68
2022/07/22 12:37:23;;;;;;;6.57;5.63;;;30.90;77.60;;;;;;5055831;28;20053;-66
2022/07/22 12:39:55;;;;;;;6.85;5.10;;;30.70;76.70;;;;;;5056104;28;20485;-66
2022/07/22 12:42:21;;;;;;;6.57;5.88;;;30.70;77.00;;;;;;5055873;28;20036;-66
2022/07/22 12:45:01;;;;;;;8.50;6.10;;;30.80;77.10;;;;;;5055480;28;20458;-66
2022/07/22 12:48:00;;;;;;;6.68;5.00;;;30.90;76.90;;;;;;5055614;28;20013;-66